Time;durP1;ratioP1;P1;durP2;ratioP2;P2;SDS_P1;SDS_P2;PMS_P1;PMS_P2;Temp;Humidity;BMP_temperature;BMP_pressure;BME280_temperature;BME280_humidity;BME280_pressure;Samples;Min_cycle;Max_cycle;Signal;HPM_P1;HPM_P2
2022/10/05 00:00:53;;;;;;;;;;;11.50;99.90;;;;;;4998878;28;20463;-76
2022/10/05 00:03:21;;;;;;;;;;;11.50;99.90;;;;;;4981317;28;20035;-76
2022/10/05 00:05:48;;;;;;;;;;;11.50;99.90;;;;;;4998460;28;19925;-76
2022/10/05 00:08:17;;;;;;;;;;;11.50;99.90;;;;;;4987550;28;19926;-76
2022/10/05 00:10:45;;;;;;;;;;;11.40;99.90;;;;;;4991908;28;19925;-77
2022/10/05 00:13:12;;;;;;;;;;;11.50;99.90;;;;;;4981819;28;19972;-77
2022/10/05 00:15:39;;;;;;;;;;;11.40;99.90;;;;;;4982777;28;20021;-76
2022/10/05 00:18:12;;;;;;;;;;;11.40;99.90;;;;;;4983082;28;20120;-76
2022/10/05 00:20:40;;;;;;;;;;;11.40;99.90;;;;;;4979869;28;19993;-77
2022/10/05 00:23:08;;;;;;;;;;;11.40;99.90;;;;;;4981343;28;19929;-76
2022/10/05 00:25:34;;;;;;;;;;;11.40;99.90;;;;;;4982377;28;19926;-76
2022/10/05 00:28:01;;;;;;;;;;;11.30;99.90;;;;;;4985399;28;20016;-76
2022/10/05 00:30:32;;;;;;;;;;;11.30;99.90;;;;;;4986841;28;19988;-76
2022/10/05 00:32:59;;;;;;;;;;;11.30;99.90;;;;;;4983633;28;20366;-76
2022/10/05 00:35:29;;;;;;;;;;;11.30;99.90;;;;;;4994311;28;19972;-76
2022/10/05 00:37:56;;;;;;;;;;;11.30;99.90;;;;;;4988267;28;19930;-76
2022/10/05 00:40:31;;;;;;;;;;;11.30;99.90;;;;;;4986521;28;20384;-77
2022/10/05 00:43:05;;;;;;;;;;;11.20;99.90;;;;;;4986937;28;19934;-76
2022/10/05 00:45:35;;;;;;;;;;;11.20;99.90;;;;;;4982288;28;20466;-76
2022/10/05 00:48:16;;;;;;;;;;;11.20;99.90;;;;;;4981697;28;19934;-76
2022/10/05 00:50:58;;;;;;;;;;;11.20;99.90;;;;;;4979744;28;19961;-76
2022/10/05 00:53:33;;;;;;;;;;;11.20;99.90;;;;;;4979073;28;20399;-76
2022/10/05 00:56:03;;;;;;;;;;;11.20;99.90;;;;;;4983848;28;20374;-76
2022/10/05 00:58:37;;;;;;;;;;;11.20;99.90;;;;;;4977361;28;19969;-76
2022/10/05 01:01:06;;;;;;;;;;;11.10;99.90;;;;;;4985359;28;19934;-76
2022/10/05 01:03:37;;;;;;;;;;;11.10;99.90;;;;;;4969766;28;19930;-76
2022/10/05 01:06:10;;;;;;;;;;;11.10;99.90;;;;;;4973293;28;20029;-76
2022/10/05 01:08:42;;;;;;;;;;;11.10;99.90;;;;;;4982587;28;19962;-76
2022/10/05 01:11:11;;;;;;;;;;;11.10;99.90;;;;;;4982223;28;20028;-76
2022/10/05 01:13:41;;;;;;;;;;;11.10;99.90;;;;;;4978840;28;20024;-76
2022/10/05 01:16:10;;;;;;;;;;;11.00;99.90;;;;;;4983078;28;20379;-76
2022/10/05 01:18:41;;;;;;;;;;;11.00;99.90;;;;;;4987469;28;20359;-76
2022/10/05 01:21:14;;;;;;;;;;;11.00;99.90;;;;;;4980968;28;19926;-76
2022/10/05 01:24:02;;;;;;;;;;;11.00;99.90;;;;;;4977614;28;20100;-77
2022/10/05 01:26:38;;;;;;;;;;;11.00;99.90;;;;;;4978809;28;19955;-76
2022/10/05 01:29:08;;;;;;;;;;;11.00;99.90;;;;;;4981631;28;20290;-76
2022/10/05 01:31:40;;;;;;;;;;;11.00;99.90;;;;;;4984474;28;19929;-76
2022/10/05 01:34:10;;;;;;;;;;;11.00;99.90;;;;;;4977234;28;19930;-76
2022/10/05 01:36:40;;;;;;;;;;;11.00;99.90;;;;;;4985233;28;19986;-76
2022/10/05 01:39:09;;;;;;;;;;;11.00;99.90;;;;;;4980586;28;19930;-76
2022/10/05 01:41:40;;;;;;;;;;;10.90;99.90;;;;;;4979934;28;19998;-76
2022/10/05 01:44:11;;;;;;;;;;;10.90;99.90;;;;;;4993939;28;20021;-76
2022/10/05 01:46:41;;;;;;;;;;;10.90;99.90;;;;;;4985048;28;19925;-76
2022/10/05 01:49:22;;;;;;;;;;;10.90;99.90;;;;;;4980272;28;20312;-76
2022/10/05 01:51:55;;;;;;;;;;;10.90;99.90;;;;;;4976412;28;19930;-76
2022/10/05 01:54:26;;;;;;;;;;;10.90;99.90;;;;;;4981474;28;19941;-76
2022/10/05 01:57:00;;;;;;;;;;;10.90;99.90;;;;;;4977414;28;19933;-76
2022/10/05 01:59:33;;;;;;;;;;;10.90;99.90;;;;;;4996379;28;20021;-76
2022/10/05 02:02:01;;;;;;;;;;;10.80;99.90;;;;;;4978373;28;19926;-76
2022/10/05 02:04:31;;;;;;;;;;;10.80;99.90;;;;;;4982620;28;19965;-76
2022/10/05 02:06:58;;;;;;;;;;;10.80;99.90;;;;;;4986177;28;19979;-76
2022/10/05 02:09:26;;;;;;;;;;;10.80;99.90;;;;;;4982457;28;20024;-77
2022/10/05 02:11:56;;;;;;;;;;;10.80;99.90;;;;;;4983610;28;19926;-76
2022/10/05 02:14:26;;;;;;;;;;;10.70;99.90;;;;;;4979355;28;19925;-76
2022/10/05 02:16:57;;;;;;;;;;;10.60;99.90;;;;;;4981569;28;19933;-76
2022/10/05 02:19:27;;;;;;;;;;;10.60;99.90;;;;;;4983360;28;20025;-76
2022/10/05 02:21:58;;;;;;;;;;;10.60;99.90;;;;;;4984401;28;19926;-76
2022/10/05 02:24:30;;;;;;;;;;;10.60;99.90;;;;;;4983899;28;20438;-76
2022/10/05 02:26:57;;;;;;;;;;;10.60;99.90;;;;;;4978630;28;19926;-76
2022/10/05 02:29:27;;;;;;;;;;;10.60;99.90;;;;;;4980869;28;19933;-76
2022/10/05 02:31:57;;;;;;;;;;;10.60;99.90;;;;;;4987471;28;20016;-76
2022/10/05 02:34:26;;;;;;;;;;;10.50;99.90;;;;;;4983131;28;19930;-76
2022/10/05 02:37:06;;;;;;;;;;;10.50;99.90;;;;;;4976588;28;19937;-77
2022/10/05 02:39:40;;;;;;;;;;;10.50;99.90;;;;;;4986656;28;19934;-76
2022/10/05 02:42:09;;;;;;;;;;;10.50;99.90;;;;;;4980586;28;19930;-76
2022/10/05 02:44:41;;;;;;;;;;;10.40;99.90;;;;;;4986013;28;19926;-76
2022/10/05 02:47:13;;;;;;;;;;;10.40;99.90;;;;;;4982805;28;19996;-76
2022/10/05 02:49:43;;;;;;;;;;;10.40;99.90;;;;;;4979492;28;19926;-76
2022/10/05 02:52:11;;;;;;;;;;;10.40;99.90;;;;;;4984705;28;20412;-76
2022/10/05 02:54:44;;;;;;;;;;;10.40;99.90;;;;;;4978044;28;20324;-76
2022/10/05 02:57:16;;;;;;;;;;;10.40;99.90;;;;;;4983529;28;19932;-76
2022/10/05 02:59:44;;;;;;;;;;;10.40;99.90;;;;;;4998554;28;20307;-76
2022/10/05 03:02:15;;;;;;;;;;;10.40;99.90;;;;;;4980022;28;21106;-76
2022/10/05 03:04:46;;;;;;;;;;;10.30;99.90;;;;;;4988239;28;19980;-76
2022/10/05 03:07:16;;;;;;;;;;;10.40;99.90;;;;;;4991705;28;19929;-76
2022/10/05 03:09:47;;;;;;;;;;;10.40;99.90;;;;;;4977095;28;20447;-76
2022/10/05 03:12:22;;;;;;;;;;;10.40;99.90;;;;;;4979256;28;21370;-77
2022/10/05 03:14:57;;;;;;;;;;;10.40;99.90;;;;;;4983983;28;19932;-76
2022/10/05 03:17:29;;;;;;;;;;;10.40;99.90;;;;;;4984045;28;19980;-76
2022/10/05 03:20:03;;;;;;;;;;;10.40;99.90;;;;;;4982327;28;20403;-76
2022/10/05 03:22:38;;;;;;;;;;;10.40;99.90;;;;;;4976342;28;19929;-76
2022/10/05 03:25:18;;;;;;;;;;;10.40;99.90;;;;;;4977504;28;20006;-76
2022/10/05 03:27:48;;;;;;;;;;;10.40;99.90;;;;;;4980912;28;19926;-76
2022/10/05 03:30:17;;;;;;;;;;;10.50;99.90;;;;;;4985695;28;19926;-76
2022/10/05 03:32:50;;;;;;;;;;;10.40;99.90;;;;;;4983539;28;20400;-76
2022/10/05 03:35:20;;;;;;;;;;;10.40;99.90;;;;;;4991233;28;19925;-76
2022/10/05 03:37:48;;;;;;;;;;;10.40;99.90;;;;;;4978650;28;20296;-76
2022/10/05 03:40:22;;;;;;;;;;;10.40;99.90;;;;;;4981815;28;19949;-76
2022/10/05 03:42:53;;;;;;;;;;;10.30;99.90;;;;;;4975343;28;19934;-76
2022/10/05 03:45:23;;;;;;;;;;;10.30;99.90;;;;;;4982969;28;20013;-76
2022/10/05 03:47:56;;;;;;;;;;;10.30;99.90;;;;;;4994342;28;19926;-76
2022/10/05 03:50:27;;;;;;;;;;;10.30;99.90;;;;;;4980120;28;20217;-76
2022/10/05 03:52:56;;;;;;;;;;;10.30;99.90;;;;;;4981340;28;20403;-76
2022/10/05 03:55:26;;;;;;;;;;;10.30;99.90;;;;;;4983256;28;19981;-76
2022/10/05 03:57:55;;;;;;;;;;;10.20;99.90;;;;;;4982282;28;19953;-76
2022/10/05 04:00:24;;;;;;;;;;;10.20;99.90;;;;;;4986169;28;19932;-76
2022/10/05 04:03:01;;;;;;;;;;;10.20;99.90;;;;;;4978390;28;19934;-76
2022/10/05 04:05:30;;;;;;;;;;;10.20;99.90;;;;;;4998248;28;19934;-76
2022/10/05 04:08:00;;;;;;;;;;;10.20;99.90;;;;;;4984912;28;19949;-76
2022/10/05 04:10:30;;;;;;;;;;;10.20;99.90;;;;;;4986179;28;19930;-76
2022/10/05 04:12:59;;;;;;;;;;;10.20;99.90;;;;;;4976521;28;20407;-76
2022/10/05 04:15:29;;;;;;;;;;;10.20;99.90;;;;;;4983056;28;20326;-76
2022/10/05 04:18:01;;;;;;;;;;;10.20;99.90;;;;;;4997770;28;19925;-76
2022/10/05 04:20:30;;;;;;;;;;;10.10;99.90;;;;;;4977241;28;19926;-76
2022/10/05 04:23:01;;;;;;;;;;;10.00;99.90;;;;;;4991861;28;19926;-76
2022/10/05 04:25:30;;;;;;;;;;;10.10;99.90;;;;;;4975482;28;19926;-76
2022/10/05 04:28:01;;;;;;;;;;;10.10;99.90;;;;;;4983656;28;19930;-76
2022/10/05 04:30:29;;;;;;;;;;;10.10;99.90;;;;;;4960901;28;19926;-76
2022/10/05 04:32:57;;;;;;;;;;;10.00;99.90;;;;;;4971132;28;20169;-76
2022/10/05 04:35:46;;;;;;;;;;;10.10;99.90;;;;;;4972846;28;20301;-77
2022/10/05 04:38:20;;;;;;;;;;;10.10;99.90;;;;;;4939577;28;20017;-76
2022/10/05 04:40:52;;;;;;;;;;;10.00;99.90;;;;;;4978920;28;19938;-76
2022/10/05 04:43:20;;;;;;;;;;;10.00;99.90;;;;;;4976354;28;20228;-75
2022/10/05 04:45:59;;;;;;;;;;;10.00;99.90;;;;;;4981077;28;19933;-76
2022/10/05 04:48:35;;;;;;;;;;;10.00;99.90;;;;;;4977672;28;19930;-74
2022/10/05 04:51:08;;;;;;;;;;;10.00;99.90;;;;;;4984564;28;19930;-76
2022/10/05 04:53:41;;;;;;;;;;;10.00;99.90;;;;;;4985520;28;20781;-76
2022/10/05 04:56:11;;;;;;;;;;;9.90;99.90;;;;;;4998754;28;19926;-76
2022/10/05 04:58:52;;;;;;;;;;;9.90;99.90;;;;;;4994823;28;19929;-74
2022/10/05 05:01:29;;;;;;;;;;;9.90;99.90;;;;;;4979072;28;19929;-80
2022/10/05 05:04:02;;;;;;;;;;;9.90;99.90;;;;;;4982076;28;19929;-74
2022/10/05 05:06:32;;;;;;;;;;;9.90;99.90;;;;;;4986146;28;19980;-77
2022/10/05 05:09:17;;;;;;;;;;;9.90;99.90;;;;;;4978812;28;20984;-75
2022/10/05 05:11:52;;;;;;;;;;;9.90;99.90;;;;;;4982121;28;19930;-76
2022/10/05 05:14:29;;;;;;;;;;;9.80;99.90;;;;;;4988028;28;19984;-84
2022/10/05 05:17:01;;;;;;;;;;;9.80;99.90;;;;;;4987730;28;20342;-75
2022/10/05 05:19:31;;;;;;;;;;;9.80;99.90;;;;;;4987138;28;20261;-76
2022/10/05 05:22:01;;;;;;;;;;;9.80;99.90;;;;;;4982398;28;19926;-81
2022/10/05 05:24:36;;;;;;;;;;;9.80;99.90;;;;;;4984161;28;20025;-76
2022/10/05 05:27:25;;;;;;;;;;;9.80;99.90;;;;;;4973094;28;20269;-76
2022/10/05 05:29:57;;;;;;;;;;;9.70;99.90;;;;;;4993040;28;19933;-76
2022/10/05 05:32:31;;;;;;;;;;;9.80;99.90;;;;;;4978577;28;20412;-75
2022/10/05 05:35:09;;;;;;;;;;;9.70;99.90;;;;;;4979270;28;19925;-76
2022/10/05 05:37:39;;;;;;;;;;;9.70;99.90;;;;;;4980479;28;19934;-76
2022/10/05 05:40:07;;;;;;;;;;;9.70;99.90;;;;;;4982900;28;19965;-76
2022/10/05 05:42:39;;;;;;;;;;;9.70;99.90;;;;;;4985219;28;19948;-76
2022/10/05 05:45:10;;;;;;;;;;;9.70;99.90;;;;;;4980694;28;19930;-76
2022/10/05 05:47:38;;;;;;;;;;;9.70;99.90;;;;;;4983090;28;19985;-76
2022/10/05 05:50:17;;;;;;;;;;;9.70;99.90;;;;;;4982007;28;19926;-77
2022/10/05 05:52:49;;;;;;;;;;;9.60;99.90;;;;;;4981556;28;19926;-76
2022/10/05 05:55:19;;;;;;;;;;;9.60;99.90;;;;;;4975787;28;19926;-76
2022/10/05 05:57:50;;;;;;;;;;;9.60;99.90;;;;;;4986112;28;20173;-77
2022/10/05 06:00:20;;;;;;;;;;;9.60;99.90;;;;;;4983243;28;19938;-75
2022/10/05 06:02:55;;;;;;;;;;;9.60;99.90;;;;;;4983094;28;19926;-77
2022/10/05 06:05:30;;;;;;;;;;;9.60;99.90;;;;;;4972952;28;20443;-77
2022/10/05 06:08:01;;;;;;;;;;;9.60;99.90;;;;;;4978617;28;19937;-77
2022/10/05 06:10:32;;;;;;;;;;;9.50;99.90;;;;;;4983185;28;19957;-77
2022/10/05 06:13:10;;;;;;;;;;;9.50;99.90;;;;;;4985465;28;20001;-80
2022/10/05 06:15:40;;;;;;;;;;;9.50;99.90;;;;;;4972209;28;19961;-76
2022/10/05 06:18:10;;;;;;;;;;;9.50;99.90;;;;;;4981100;28;19985;-76
2022/10/05 06:20:39;;;;;;;;;;;9.50;99.90;;;;;;4994158;28;19937;-77
2022/10/05 06:23:10;;;;;;;;;;;9.50;99.90;;;;;;4980506;28;20319;-77
2022/10/05 06:25:41;;;;;;;;;;;9.50;99.90;;;;;;4981974;28;19987;-76
2022/10/05 06:28:10;;;;;;;;;;;9.50;99.90;;;;;;4983353;28;19926;-77
2022/10/05 06:30:45;;;;;;;;;;;9.50;99.90;;;;;;4989155;28;20479;-76
2022/10/05 06:33:17;;;;;;;;;;;9.50;99.90;;;;;;4979295;28;20057;-76
2022/10/05 06:35:50;;;;;;;;;;;9.50;99.90;;;;;;4983126;28;19926;-76
2022/10/05 06:38:24;;;;;;;;;;;9.50;99.90;;;;;;4995332;28;19926;-76
2022/10/05 06:40:57;;;;;;;;;;;9.50;99.90;;;;;;4980321;28;19932;-76
2022/10/05 06:43:34;;;;;;;;;;;9.50;99.90;;;;;;4990670;28;20315;-77
2022/10/05 06:46:21;;;;;;;;;;;9.50;99.90;;;;;;4980071;28;19926;-76
2022/10/05 06:49:14;;;;;;;;;;;9.50;99.90;;;;;;4978926;28;19934;-76
2022/10/05 06:51:56;;;;;;;;;;;9.50;99.90;;;;;;4981503;28;20384;-77
2022/10/05 06:54:39;;;;;;;;;;;9.50;99.90;;;;;;4974012;28;20485;-76
2022/10/05 06:57:10;;;;;;;;;;;9.50;99.90;;;;;;4977236;28;19965;-77
2022/10/05 06:59:48;;;;;;;;;;;9.50;99.90;;;;;;4982112;28;19932;-76
2022/10/05 07:02:18;;;;;;;;;;;9.50;99.90;;;;;;4983453;28;20907;-76
2022/10/05 07:05:03;;;;;;;;;;;9.50;99.90;;;;;;4986013;28;19925;-78
2022/10/05 07:07:32;;;;;;;;;;;9.50;99.90;;;;;;4941140;28;20403;-76
2022/10/05 07:10:06;;;;;;;;;;;9.50;99.90;;;;;;4987443;28;19934;-76
2022/10/05 07:12:50;;;;;;;;;;;9.60;99.90;;;;;;4982663;28;20417;-77
2022/10/05 07:15:24;;;;;;;;;;;9.60;99.90;;;;;;4985416;28;19925;-76
2022/10/05 07:17:56;;;;;;;;;;;9.50;99.90;;;;;;4981898;28;19927;-76
2022/10/05 07:20:27;;;;;;;;;;;9.60;99.90;;;;;;4978181;28;19933;-77
2022/10/05 07:23:00;;;;;;;;;;;9.60;99.90;;;;;;4983472;28;19945;-76
2022/10/05 07:25:29;;;;;;;;;;;9.60;99.90;;;;;;4980834;28;19929;-77
2022/10/05 07:28:00;;;;;;;;;;;9.60;99.90;;;;;;4985853;28;19961;-76
2022/10/05 07:30:28;;;;;;;;;;;9.60;99.90;;;;;;4976611;28;19937;-76
2022/10/05 07:32:59;;;;;;;;;;;9.60;99.90;;;;;;5002528;28;19933;-76
2022/10/05 07:38:19;;;;;;;;;;;9.60;99.90;;;;;;4978187;28;19929;-76
2022/10/05 07:40:49;;;;;;;;;;;9.60;99.90;;;;;;4987107;28;19980;-76
2022/10/05 07:43:27;;;;;;;;;;;9.60;99.90;;;;;;4978063;28;19926;-77
2022/10/05 07:45:59;;;;;;;;;;;9.60;99.90;;;;;;4989751;28;20682;-76
2022/10/05 07:48:32;;;;;;;;;;;9.60;99.90;;;;;;4978414;28;19984;-76
2022/10/05 07:51:01;;;;;;;;;;;9.60;99.90;;;;;;4980427;28;20008;-76
2022/10/05 07:53:32;;;;;;;;;;;9.70;99.90;;;;;;4987262;28;19925;-76
2022/10/05 07:56:02;;;;;;;;;;;9.60;99.90;;;;;;4976150;28;19968;-77
2022/10/05 07:58:32;;;;;;;;;;;9.60;99.90;;;;;;4979478;28;19960;-77
2022/10/05 08:01:04;;;;;;;;;;;9.60;99.90;;;;;;4979242;28;19926;-76
2022/10/05 08:03:37;;;;;;;;;;;9.60;99.90;;;;;;4973450;28;19934;-77
2022/10/05 08:06:06;;;;;;;;;;;9.60;99.90;;;;;;4983762;28;20372;-77
2022/10/05 08:08:38;;;;;;;;;;;9.60;99.90;;;;;;4988734;28;20487;-76
2022/10/05 08:11:10;;;;;;;;;;;9.50;99.90;;;;;;4979626;28;19932;-77
2022/10/05 08:13:39;;;;;;;;;;;9.60;99.90;;;;;;4998023;28;20027;-77
2022/10/05 08:16:11;;;;;;;;;;;9.50;99.90;;;;;;4980837;28;20205;-76
2022/10/05 08:18:43;;;;;;;;;;;9.50;99.90;;;;;;4986798;28;19933;-76
2022/10/05 08:21:11;;;;;;;;;;;9.50;99.90;;;;;;4982038;28;20017;-77
2022/10/05 08:23:40;;;;;;;;;;;9.50;99.90;;;;;;4980150;28;20019;-77
2022/10/05 08:26:14;;;;;;;;;;;9.50;99.90;;;;;;4978030;28;19961;-76
2022/10/05 08:28:45;;;;;;;;;;;9.50;99.90;;;;;;4986943;28;19957;-77
2022/10/05 08:31:18;;;;;;;;;;;9.50;99.90;;;;;;4979988;28;19930;-77
2022/10/05 08:33:54;;;;;;;;;;;9.50;99.90;;;;;;4976866;28;19927;-77
2022/10/05 08:36:24;;;;;;;;;;;9.50;99.90;;;;;;4981759;28;19969;-77
2022/10/05 08:38:53;;;;;;;;;;;9.50;99.90;;;;;;4980800;28;19926;-76
2022/10/05 08:41:35;;;;;;;;;;;9.50;99.90;;;;;;4981459;28;20004;-76
2022/10/05 08:44:12;;;;;;;;;;;9.50;99.90;;;;;;4978113;28;20000;-76
2022/10/05 08:46:53;;;;;;;;;;;9.50;99.90;;;;;;4976745;28;20459;-76
2022/10/05 08:49:47;;;;;;;;;;;9.60;99.90;;;;;;4979257;28;19926;-76
2022/10/05 08:52:27;;;;;;;;;;;9.60;99.90;;;;;;4943447;28;19926;-76
2022/10/05 08:55:13;;;;;;;;;;;9.60;99.90;;;;;;4973061;28;19937;-76
2022/10/05 08:57:46;;;;;;;;;;;9.60;99.90;;;;;;4983571;28;19945;-76
2022/10/05 09:00:15;;;;;;;;;;;9.60;99.90;;;;;;4970169;28;19957;-76
2022/10/05 09:03:00;;;;;;;;;;;9.60;99.90;;;;;;4980732;28;20444;-77
2022/10/05 09:05:56;;;;;;;;;;;9.70;99.90;;;;;;4982404;28;20020;-77
2022/10/05 09:08:31;;;;;;;;;;;9.70;99.90;;;;;;4978154;28;20004;-77
2022/10/05 09:11:01;;;;;;;;;;;9.70;99.90;;;;;;4979361;28;19980;-77
2022/10/05 09:13:47;;;;;;;;;;;9.70;99.90;;;;;;4980219;28;19926;-76
2022/10/05 09:16:24;;;;;;;;;;;9.70;99.90;;;;;;4976971;28;19961;-76
2022/10/05 09:19:02;;;;;;;;;;;9.70;99.90;;;;;;5000005;28;19933;-76
2022/10/05 09:21:38;;;;;;;;;;;9.70;99.90;;;;;;4978634;28;19926;-76
2022/10/05 09:24:10;;;;;;;;;;;9.80;99.90;;;;;;4984291;28;20530;-77
2022/10/05 09:26:44;;;;;;;;;;;9.80;99.90;;;;;;4977498;28;20028;-76
2022/10/05 09:29:34;;;;;;;;;;;9.90;99.90;;;;;;4987359;28;20347;-77
2022/10/05 09:32:15;;;;;;;;;;;9.90;99.90;;;;;;4982719;28;19954;-77
2022/10/05 09:34:52;;;;;;;;;;;9.90;99.90;;;;;;4975417;28;20069;-76
2022/10/05 09:37:37;;;;;;;;;;;9.90;99.90;;;;;;4984470;28;19934;-76
2022/10/05 09:40:22;;;;;;;;;;;9.90;99.90;;;;;;4953972;28;19937;-77
2022/10/05 09:42:59;;;;;;;;;;;9.90;99.90;;;;;;4979282;28;19925;-77
2022/10/05 09:45:40;;;;;;;;;;;10.00;99.90;;;;;;4985170;28;19964;-76
2022/10/05 09:48:26;;;;;;;;;;;10.00;99.90;;;;;;4982703;28;19949;-77
2022/10/05 09:51:13;;;;;;;;;;;10.00;99.90;;;;;;4979023;28;20378;-76
2022/10/05 09:54:01;;;;;;;;;;;10.00;99.90;;;;;;4961938;28;20016;-76
2022/10/05 09:56:35;;;;;;;;;;;10.00;99.90;;;;;;4963947;28;19961;-76
2022/10/05 09:59:13;;;;;;;;;;;10.10;99.90;;;;;;4974945;28;20004;-76
2022/10/05 10:01:50;;;;;;;;;;;10.10;99.90;;;;;;4986376;28;20550;-76
2022/10/05 10:04:47;;;;;;;;;;;10.10;99.90;;;;;;4976726;28;19926;-76
2022/10/05 10:07:24;;;;;;;;;;;10.20;99.90;;;;;;4979684;28;19934;-77
2022/10/05 10:10:09;;;;;;;;;;;10.20;99.90;;;;;;4975302;28;19981;-77
2022/10/05 10:12:40;;;;;;;;;;;10.30;99.90;;;;;;4944119;28;19933;-76
2022/10/05 10:15:25;;;;;;;;;;;10.40;99.90;;;;;;4974971;28;19937;-76
2022/10/05 10:18:01;;;;;;;;;;;11.00;99.90;;;;;;4976792;28;19948;-75
2022/10/05 10:20:33;;;;;;;;;;;11.10;99.90;;;;;;4972568;28;19926;-76
2022/10/05 10:23:18;;;;;;;;;;;11.00;99.90;;;;;;4974226;28;20396;-80
2022/10/05 10:26:04;;;;;;;;;;;10.90;99.90;;;;;;4978695;28;19980;-88
2022/10/05 10:28:42;;;;;;;;;;;10.90;99.90;;;;;;4966846;28;20063;-76
2022/10/05 10:31:17;;;;;;;;;;;10.90;99.90;;;;;;4977159;28;20098;-76
2022/10/05 10:34:08;;;;;;;;;;;11.10;99.90;;;;;;4975403;28;19940;-77
2022/10/05 10:36:45;;;;;;;;;;;11.10;99.90;;;;;;4970722;28;19966;-77
2022/10/05 10:39:16;;;;;;;;;;;11.00;99.90;;;;;;4973301;28;19934;-77
2022/10/05 10:42:01;;;;;;;;;;;11.10;99.90;;;;;;4974110;28;19977;-76
2022/10/05 10:44:47;;;;;;;;;;;11.10;99.90;;;;;;4972582;28;19937;-77
2022/10/05 10:47:24;;;;;;;;;;;11.10;99.90;;;;;;4980618;28;19957;-77
2022/10/05 10:50:11;;;;;;;;;;;11.20;99.90;;;;;;4978138;28;19957;-77
2022/10/05 10:52:47;;;;;;;;;;;11.20;99.90;;;;;;4974847;28;20549;-77
2022/10/05 10:55:27;;;;;;;;;;;11.20;99.90;;;;;;4978491;28;20020;-77
2022/10/05 10:58:12;;;;;;;;;;;11.20;99.90;;;;;;4974286;28;20025;-76
2022/10/05 11:00:46;;;;;;;;;;;11.30;99.90;;;;;;4951306;28;20008;-76
2022/10/05 11:03:32;;;;;;;;;;;11.30;99.90;;;;;;4979558;28;19934;-80
2022/10/05 11:06:09;;;;;;;;;;;11.20;99.90;;;;;;4997672;28;20001;-88
2022/10/05 11:08:51;;;;;;;;;;;11.30;99.90;;;;;;4982269;28;19942;-91
2022/10/05 11:11:48;;;;;;;;;;;11.40;99.90;;;;;;4995533;28;20172;-85
2022/10/05 11:14:29;;;;;;;;;;;11.40;99.90;;;;;;4977627;28;19941;-82
2022/10/05 11:17:08;;;;;;;;;;;11.40;99.90;;;;;;4979297;28;19925;-88
2022/10/05 11:19:54;;;;;;;;;;;11.40;99.90;;;;;;4982180;28;19933;-81
2022/10/05 11:22:30;;;;;;;;;;;11.40;99.90;;;;;;4977017;28;19925;-88
2022/10/05 11:25:10;;;;;;;;;;;11.50;99.90;;;;;;4986288;28;19926;-79
2022/10/05 11:27:59;;;;;;;;;;;11.50;99.90;;;;;;4984302;28;19926;-80
2022/10/05 11:30:35;;;;;;;;;;;11.50;99.90;;;;;;4993052;28;19940;-80
2022/10/05 11:33:22;;;;;;;;;;;11.60;99.90;;;;;;4980047;28;19925;-80
2022/10/05 11:36:16;;;;;;;;;;;11.60;99.90;;;;;;4982200;28;19956;-80
2022/10/05 11:38:55;;;;;;;;;;;11.60;99.90;;;;;;4942578;28;19933;-86
2022/10/05 11:41:41;;;;;;;;;;;11.90;99.90;;;;;;4980351;28;19925;-88
2022/10/05 11:44:22;;;;;;;;;;;12.10;99.90;;;;;;4977828;28;19927;-82
2022/10/05 11:46:54;;;;;;;;;;;12.10;99.90;;;;;;4975987;28;19933;-78
2022/10/05 11:49:35;;;;;;;;;;;12.10;99.90;;;;;;4996839;28;20236;-78
2022/10/05 11:52:06;;;;;;;;;;;12.10;99.90;;;;;;4978082;28;19930;-78
2022/10/05 11:54:39;;;;;;;;;;;12.10;99.90;;;;;;4979652;28;19973;-80
2022/10/05 11:57:07;;;;;;;;;;;12.10;99.90;;;;;;4977445;28;19926;-79
2022/10/05 11:59:39;;;;;;;;;;;12.10;99.90;;;;;;4996414;28;19940;-86
2022/10/05 12:02:23;;;;;;;;;;;12.10;99.90;;;;;;4976832;28;20348;-81
2022/10/05 12:04:57;;;;;;;;;;;12.20;99.90;;;;;;4976071;28;19934;-79
2022/10/05 12:07:27;;;;;;;;;;;12.20;99.90;;;;;;4971686;28;19930;-78
2022/10/05 12:10:16;;;;;;;;;;;12.20;99.90;;;;;;4971308;28;20024;-78
2022/10/05 12:12:49;;;;;;;;;;;12.20;99.90;;;;;;4972891;28;19930;-78
2022/10/05 12:15:22;;;;;;;;;;;12.30;99.90;;;;;;4978956;28;20086;-77
2022/10/05 12:17:52;;;;;;;;;;;12.30;99.90;;;;;;4977050;28;20404;-78
2022/10/05 12:20:22;;;;;;;;;;;12.40;99.90;;;;;;4974815;28;22090;-79
2022/10/05 12:22:51;;;;;;;;;;;12.40;99.90;;;;;;4975455;28;20804;-77
2022/10/05 12:25:22;;;;;;;;;;;12.50;99.90;;;;;;4973891;28;22509;-76
2022/10/05 12:27:52;;;;;;;;;;;12.60;99.90;;;;;;4993484;28;19992;-78
2022/10/05 12:30:29;;;;;;;;;;;12.60;99.90;;;;;;4984172;28;20036;-77
2022/10/05 12:33:00;;;;;;;;;;;12.70;99.90;;;;;;4979688;28;19926;-77
2022/10/05 12:35:32;;;;;;;;;;;12.90;99.90;;;;;;4976625;28;19968;-78
2022/10/05 12:38:02;;;;;;;;;;;12.90;99.90;;;;;;4974702;28;19926;-77
2022/10/05 12:40:34;;;;;;;;;;;12.90;99.90;;;;;;4978710;28;20008;-76
2022/10/05 12:43:03;;;;;;;;;;;13.00;99.90;;;;;;4973720;28;20382;-77
2022/10/05 12:45:42;;;;;;;;;;;13.00;99.90;;;;;;4973538;28;19926;-77
2022/10/05 12:48:17;;;;;;;;;;;13.10;99.90;;;;;;4974222;28;19977;-77
2022/10/05 12:50:47;;;;;;;;;;;13.20;99.90;;;;;;4975112;28;20310;-76
2022/10/05 12:53:28;;;;;;;;;;;13.30;99.90;;;;;;4977253;28;20024;-77
2022/10/05 12:56:01;;;;;;;;;;;13.30;99.90;;;;;;4978637;28;20411;-80
2022/10/05 12:58:33;;;;;;;;;;;13.40;99.90;;;;;;4970338;28;19934;-78
2022/10/05 13:01:06;;;;;;;;;;;13.60;99.90;;;;;;4974156;28;20307;-76
2022/10/05 13:03:34;;;;;;;;;;;13.90;99.90;;;;;;4978071;28;20153;-77
2022/10/05 13:06:08;;;;;;;;;;;13.80;99.90;;;;;;4975001;28;19934;-76
2022/10/05 13:08:39;;;;;;;;;;;13.80;99.90;;;;;;4980891;28;20009;-75
2022/10/05 13:11:09;;;;;;;;;;;13.90;99.90;;;;;;4971737;28;19926;-77
2022/10/05 13:13:40;;;;;;;;;;;13.90;99.90;;;;;;4974845;28;19929;-76
2022/10/05 13:16:14;;;;;;;;;;;13.90;99.90;;;;;;4970427;28;19933;-77
2022/10/05 13:18:48;;;;;;;;;;;14.00;99.90;;;;;;4986059;28;19933;-77
2022/10/05 13:21:18;;;;;;;;;;;14.00;99.90;;;;;;4974691;28;20273;-76
2022/10/05 13:23:50;;;;;;;;;;;14.00;99.90;;;;;;4975497;28;19940;-76
2022/10/05 13:26:18;;;;;;;;;;;14.10;99.90;;;;;;4976517;28;20421;-78
2022/10/05 13:28:50;;;;;;;;;;;14.10;99.90;;;;;;4976802;28;19934;-78
2022/10/05 13:31:21;;;;;;;;;;;14.10;99.90;;;;;;4978482;28;20680;-80
2022/10/05 13:33:53;;;;;;;;;;;14.20;99.90;;;;;;4978631;28;19929;-80
2022/10/05 13:36:24;;;;;;;;;;;14.20;99.90;;;;;;4978160;28;19937;-79
2022/10/05 13:38:55;;;;;;;;;;;14.30;99.90;;;;;;4977700;28;19929;-79
2022/10/05 13:41:27;;;;;;;;;;;14.30;99.90;;;;;;4974379;28;21017;-79
2022/10/05 13:43:58;;;;;;;;;;;14.40;99.90;;;;;;4979706;28;19930;-79
2022/10/05 13:46:33;;;;;;;;;;;14.40;99.90;;;;;;4996795;28;20288;-79
2022/10/05 13:49:04;;;;;;;;;;;14.50;99.90;;;;;;4975755;28;19926;-80
2022/10/05 13:51:39;;;;;;;;;;;14.60;99.90;;;;;;4978412;28;19940;-80
2022/10/05 13:54:14;;;;;;;;;;;14.70;99.90;;;;;;4978663;28;19926;-81
2022/10/05 13:56:43;;;;;;;;;;;14.80;99.90;;;;;;4979721;28;19930;-79
2022/10/05 13:59:16;;;;;;;;;;;14.80;99.90;;;;;;4976618;28;20009;-79
2022/10/05 14:01:48;;;;;;;;;;;14.80;99.90;;;;;;4979917;28;20020;-76
2022/10/05 14:04:17;;;;;;;;;;;14.90;99.90;;;;;;4972212;28;20468;-78
2022/10/05 14:06:44;;;;;;;;;;;14.90;99.90;;;;;;4970964;28;20388;-81
2022/10/05 14:09:26;;;;;;;;;;;14.90;99.90;;;;;;4981699;28;19926;-76
2022/10/05 14:12:05;;;;;;;;;;;15.00;99.90;;;;;;4966804;28;19926;-77
2022/10/05 14:14:40;;;;;;;;;;;15.20;99.90;;;;;;4985141;28;20017;-76
2022/10/05 14:17:13;;;;;;;;;;;15.40;99.90;;;;;;4985102;28;20414;-78
2022/10/05 14:19:42;;;;;;;;;;;15.30;99.90;;;;;;4984198;28;19952;-77
2022/10/05 14:22:12;;;;;;;;;;;15.30;99.90;;;;;;4993665;28;19932;-77
2022/10/05 14:24:47;;;;;;;;;;;15.30;99.90;;;;;;4989121;28;19979;-77
2022/10/05 14:27:19;;;;;;;;;;;15.40;99.90;;;;;;4981372;28;20367;-77
2022/10/05 14:29:52;;;;;;;;;;;15.40;99.90;;;;;;4978573;28;19934;-77
2022/10/05 14:32:23;;;;;;;;;;;15.50;99.90;;;;;;4988066;28;19980;-76
2022/10/05 14:34:56;;;;;;;;;;;15.60;99.90;;;;;;4984888;28;20381;-77
2022/10/05 14:37:24;;;;;;;;;;;15.60;99.90;;;;;;4989172;28;19929;-77
2022/10/05 14:39:51;;;;;;;;;;;15.60;99.90;;;;;;4998799;28;20413;-77
2022/10/05 14:42:19;;;;;;;;;;;15.60;99.90;;;;;;4982673;28;19926;-77
2022/10/05 14:44:58;;;;;;;;;;;15.70;99.90;;;;;;4989072;28;19937;-77
2022/10/05 14:47:29;;;;;;;;;;;15.70;99.90;;;;;;4987434;28;20291;-76
2022/10/05 14:50:14;;;;;;;;;;;15.70;99.90;;;;;;4984434;28;20552;-76
2022/10/05 14:52:41;;;;;;;;;;;;;;;;;;4980751;28;20142;-77
2022/10/05 14:55:17;;;;;;;;;;;15.80;99.90;;;;;;4983917;28;20356;-77
2022/10/05 14:57:48;;;;;;;;;;;15.80;99.90;;;;;;4979787;28;19933;-78
2022/10/05 15:00:16;;;;;;;;;;;15.80;99.90;;;;;;4986357;28;19934;-77
2022/10/05 15:02:54;;;;;;;;;;;15.90;99.90;;;;;;4988678;28;20025;-77